LIPZ - Información del aeropuerto


Mapa

Información de pistas
Pista 04L Longitud 9121 ft Anchura 148 ft
Elevación 7 ft Threshold 308 ft Heading 42
Pista 22R Longitud 9121 ft Anchura 148 ft
Elevación 7 ft Threshold 0 ft Heading 222
Pista 04R Longitud 10827 ft Anchura 148 ft
Elevación 7 ft Threshold 0 ft Heading 42
Pista 22L Longitud 10827 ft Anchura 148 ft
Elevación 7 ft Threshold 0 ft Heading 222
Frecuencias del aeropuerto
Tipo APP Nombre APP Frecuencia 118.9 MHZ
Tipo ATIS Nombre ATIS Frecuencia 122.225 MHZ
Tipo GND Nombre GND Frecuencia 121.7 MHZ
Tipo TWR Nombre TWR Frecuencia 120.2 MHZ
Radio-ayudas del aeropuerto
Tipo VOR-DME Nombre Tessera Frecuencia 115300 KHZ
Tipo NDB Nombre Venezia Frecuencia 379 KHZ
Información meteorología y NOTAM del aeropuerto
ADDS - METARS form results

(2335 UTC 23 October 2019)
Data provider http://aviationweather.gov/metar/data/
 
METAR text: LIPZ 232320Z 04004KT 0300 R04R/0350N FG NSC 15/15 Q1017 NOSIG
Conditions at: LIPZ (VENEZIA/TESSERA , IT) observed 2320 UTC 23 October 2019
Temperature: 15.0°C (59°F)
Dewpoint: 15.0°C (59°F) [RH = 100%]
Pressure (altimeter): 30.03 inches Hg (1017.0 mb)
Winds: from the NE (40 degrees) at 5 MPH (4 knots; 2.1 m/s)
Visibility: 0.19 miles (0.31 km)
Ceiling: at least 12,000 feet AGL
Clouds: sky clear below 12,000 feet AGL
Weather: FG  (fog)

METAR text: LIPZ 232250Z 05004KT 0400 R04R/0900N BCFG SCT004 15/15 Q1017 NOSIG
Conditions at: LIPZ (VENEZIA/TESSERA , IT) observed 2250 UTC 23 October 2019
Temperature: 15.0°C (59°F)
Dewpoint: 15.0°C (59°F) [RH = 100%]
Pressure (altimeter): 30.03 inches Hg (1017.0 mb)
Winds: from the NE (50 degrees) at 5 MPH (4 knots; 2.1 m/s)
Visibility: 0.25 miles (0.40 km)
Ceiling: at least 12,000 feet AGL
Clouds: scattered clouds at 400 feet AGL
Weather: BCFG  (patches of fog)

Forecast for: LIPZ (VENEZIA/TESSERA , IT)
Text: TAF LIPZ 232300Z 2400/2506 VRB05KT 0400 FG BKN003
Forecast period: 0000 to 0600 UTC 24 October 2019
Forecast type: FROM: standard forecast or significant change
Winds: variable direction winds at 6 MPH (5 knots; 2.6 m/s)
Visibility: 0.25 miles (0.40 km)
Ceiling: 300 feet AGL
Clouds: broken clouds at 300 feet AGL
Weather: FG  (fog)
Text: BECMG 2406/2409 9999 FEW030
Forecast period: 0600 UTC 24 October 2019 to 0600 UTC 25 October 2019
Forecast type: BECOMING: Conditions expected to become as follows by 0900 UTC 24 October 2019
Winds: variable direction winds at 6 MPH (5 knots; 2.6 m/s)
Visibility: 6 or more miles 10+ km)
Ceiling: at least 12,000 feet AGL
Clouds: few clouds at 3000 feet AGL
Weather: FG  (fog)
Text: TEMPO 2412/2418 SHRA
Forecast period: 1200 to 1800 UTC 24 October 2019
Forecast type: TEMPORARY: The following changes expected for less than half the time period
Visibility: missing
Ceiling: unknown
Clouds: missing
Weather: SHRA  (rain showers)